Terminal Aerodrome Forecast
Issued by NWS Tampa Bay Area, FL

Home | Current Version | Previous Version | Text Only | Print | Product List | Glossary On
Versions: 1 2 3 4 5 6 7 8 9 10 11 12 13 14 15
000
FTUS42 KTBW 271735
TAFSRQ
TAF
KSRQ 271735Z 2718/2818 17008KT P6SM VCSH SCT040 BKN120
      TEMPO 2718/2720 6SM -SHRA BKN040
     FM272000 25007KT P6SM VCTS SCT035CB SCT120 BKN250
     FM280100 10004KT P6SM SCT030 BKN250
     FM280600 VRB03KT P6SM SCT250
     FM281300 10004KT P6SM VCSH SCT020 SCT250=

USA.gov is the U.S. government's official web portal to all federal, state and local government web resources and services.